sensor_id;sensor_type;location;lat;lon;timestamp;P1;durP1;ratioP1;P2;durP2;ratioP2
67861;SDS011;54665;51.462;6.698;2022-09-13T00:00:29;7.70;;;3.77;;
67861;SDS011;54665;51.462;6.698;2022-09-13T00:02:55;6.03;;;3.65;;
67861;SDS011;54665;51.462;6.698;2022-09-13T00:05:21;8.13;;;3.60;;
67861;SDS011;54665;51.462;6.698;2022-09-13T00:07:47;8.00;;;3.90;;
67861;SDS011;54665;51.462;6.698;2022-09-13T00:10:12;8.57;;;3.70;;
67861;SDS011;54665;51.462;6.698;2022-09-13T00:12:38;5.80;;;3.20;;
67861;SDS011;54665;51.462;6.698;2022-09-13T00:15:03;7.80;;;3.40;;
67861;SDS011;54665;51.462;6.698;2022-09-13T00:17:29;8.32;;;3.50;;
67861;SDS011;54665;51.462;6.698;2022-09-13T00:19:55;6.07;;;3.20;;
67861;SDS011;54665;51.462;6.698;2022-09-13T00:22:20;6.03;;;3.23;;
67861;SDS011;54665;51.462;6.698;2022-09-13T00:24:45;8.40;;;3.57;;
67861;SDS011;54665;51.462;6.698;2022-09-13T00:27:11;6.13;;;3.00;;
67861;SDS011;54665;51.462;6.698;2022-09-13T00:29:37;7.38;;;3.40;;
67861;SDS011;54665;51.462;6.698;2022-09-13T00:32:02;7.07;;;3.40;;
67861;SDS011;54665;51.462;6.698;2022-09-13T00:34:28;7.40;;;3.40;;
67861;SDS011;54665;51.462;6.698;2022-09-13T00:36:53;6.47;;;3.30;;
67861;SDS011;54665;51.462;6.698;2022-09-13T00:39:18;5.57;;;3.30;;
67861;SDS011;54665;51.462;6.698;2022-09-13T00:41:47;5.10;;;3.08;;
67861;SDS011;54665;51.462;6.698;2022-09-13T00:47:18;8.65;;;3.60;;
67861;SDS011;54665;51.462;6.698;2022-09-13T00:50:24;6.40;;;3.30;;
67861;SDS011;54665;51.462;6.698;2022-09-13T00:53:25;5.30;;;2.92;;
67861;SDS011;54665;51.462;6.698;2022-09-13T00:55:59;6.88;;;2.90;;
67861;SDS011;54665;51.462;6.698;2022-09-13T00:58:31;6.32;;;3.08;;
67861;SDS011;54665;51.462;6.698;2022-09-13T01:01:01;6.85;;;3.25;;
67861;SDS011;54665;51.462;6.698;2022-09-13T01:03:33;6.20;;;3.27;;
67861;SDS011;54665;51.462;6.698;2022-09-13T01:06:03;7.03;;;3.20;;
67861;SDS011;54665;51.462;6.698;2022-09-13T01:08:31;6.70;;;3.40;;
67861;SDS011;54665;51.462;6.698;2022-09-13T01:11:08;6.15;;;3.00;;
67861;SDS011;54665;51.462;6.698;2022-09-13T01:13:38;6.90;;;3.30;;
67861;SDS011;54665;51.462;6.698;2022-09-13T01:16:04;5.87;;;3.60;;
67861;SDS011;54665;51.462;6.698;2022-09-13T01:18:29;5.03;;;3.10;;
67861;SDS011;54665;51.462;6.698;2022-09-13T01:24:18;7.03;;;3.33;;
67861;SDS011;54665;51.462;6.698;2022-09-13T01:35:57;6.93;;;3.42;;
67861;SDS011;54665;51.462;6.698;2022-09-13T01:38:38;8.63;;;3.50;;
67861;SDS011;54665;51.462;6.698;2022-09-13T01:43:55;6.70;;;3.33;;
67861;SDS011;54665;51.462;6.698;2022-09-13T01:46:35;5.55;;;3.63;;
67861;SDS011;54665;51.462;6.698;2022-09-13T01:57:53;6.22;;;3.38;;
67861;SDS011;54665;51.462;6.698;2022-09-13T02:00:20;7.55;;;3.22;;
67861;SDS011;54665;51.462;6.698;2022-09-13T02:03:00;6.70;;;3.40;;
67861;SDS011;54665;51.462;6.698;2022-09-13T02:05:33;7.43;;;3.50;;
67861;SDS011;54665;51.462;6.698;2022-09-13T02:08:12;8.32;;;3.33;;
67861;SDS011;54665;51.462;6.698;2022-09-13T02:10:40;7.17;;;3.90;;
67861;SDS011;54665;51.462;6.698;2022-09-13T02:13:11;8.02;;;3.38;;
67861;SDS011;54665;51.462;6.698;2022-09-13T02:15:45;9.60;;;3.30;;
67861;SDS011;54665;51.462;6.698;2022-09-13T02:18:14;6.85;;;3.70;;
67861;SDS011;54665;51.462;6.698;2022-09-13T02:21:03;5.65;;;3.35;;
67861;SDS011;54665;51.462;6.698;2022-09-13T02:23:43;7.67;;;3.30;;
67861;SDS011;54665;51.462;6.698;2022-09-13T02:26:14;5.50;;;3.10;;
67861;SDS011;54665;51.462;6.698;2022-09-13T02:28:41;6.10;;;3.38;;
67861;SDS011;54665;51.462;6.698;2022-09-13T02:31:12;9.15;;;3.50;;
67861;SDS011;54665;51.462;6.698;2022-09-13T02:34:05;6.20;;;3.20;;
67861;SDS011;54665;51.462;6.698;2022-09-13T02:36:33;7.70;;;3.53;;
67861;SDS011;54665;51.462;6.698;2022-09-13T02:39:06;9.02;;;3.50;;
67861;SDS011;54665;51.462;6.698;2022-09-13T02:41:57;7.25;;;3.30;;
67861;SDS011;54665;51.462;6.698;2022-09-13T02:44:44;5.40;;;3.13;;
67861;SDS011;54665;51.462;6.698;2022-09-13T02:49:43;7.07;;;3.50;;
67861;SDS011;54665;51.462;6.698;2022-09-13T03:00:16;4.38;;;3.10;;
67861;SDS011;54665;51.462;6.698;2022-09-13T03:02:42;5.07;;;3.10;;
67861;SDS011;54665;51.462;6.698;2022-09-13T03:05:09;6.15;;;3.00;;
67861;SDS011;54665;51.462;6.698;2022-09-13T03:07:35;6.15;;;2.90;;
67861;SDS011;54665;51.462;6.698;2022-09-13T03:10:07;10.23;;;3.27;;
67861;SDS011;54665;51.462;6.698;2022-09-13T03:15:56;7.50;;;3.60;;
67861;SDS011;54665;51.462;6.698;2022-09-13T03:26:30;7.22;;;3.13;;
67861;SDS011;54665;51.462;6.698;2022-09-13T03:29:28;8.90;;;3.80;;
67861;SDS011;54665;51.462;6.698;2022-09-13T03:40:27;6.80;;;3.67;;
67861;SDS011;54665;51.462;6.698;2022-09-13T03:43:17;8.35;;;3.33;;
67861;SDS011;54665;51.462;6.698;2022-09-13T03:45:50;6.00;;;3.40;;
67861;SDS011;54665;51.462;6.698;2022-09-13T03:48:20;6.57;;;3.50;;
67861;SDS011;54665;51.462;6.698;2022-09-13T03:50:47;10.38;;;3.80;;
67861;SDS011;54665;51.462;6.698;2022-09-13T03:53:16;7.07;;;3.60;;
67861;SDS011;54665;51.462;6.698;2022-09-13T03:55:45;6.80;;;3.80;;
67861;SDS011;54665;51.462;6.698;2022-09-13T03:58:11;5.77;;;3.80;;
67861;SDS011;54665;51.462;6.698;2022-09-13T04:00:38;7.63;;;3.35;;
67861;SDS011;54665;51.462;6.698;2022-09-13T04:03:05;8.98;;;3.97;;
67861;SDS011;54665;51.462;6.698;2022-09-13T04:05:31;5.70;;;3.50;;
67861;SDS011;54665;51.462;6.698;2022-09-13T04:07:58;7.97;;;3.95;;
67861;SDS011;54665;51.462;6.698;2022-09-13T04:10:24;7.50;;;3.70;;
67861;SDS011;54665;51.462;6.698;2022-09-13T04:12:49;6.13;;;3.60;;
67861;SDS011;54665;51.462;6.698;2022-09-13T04:15:15;6.90;;;3.78;;
67861;SDS011;54665;51.462;6.698;2022-09-13T04:17:41;7.30;;;3.67;;
67861;SDS011;54665;51.462;6.698;2022-09-13T04:20:06;8.60;;;4.20;;
67861;SDS011;54665;51.462;6.698;2022-09-13T04:22:32;6.47;;;3.93;;
67861;SDS011;54665;51.462;6.698;2022-09-13T04:24:57;8.80;;;3.90;;
67861;SDS011;54665;51.462;6.698;2022-09-13T04:27:23;6.03;;;3.93;;
67861;SDS011;54665;51.462;6.698;2022-09-13T04:29:49;7.13;;;3.80;;
67861;SDS011;54665;51.462;6.698;2022-09-13T04:32:15;8.27;;;3.83;;
67861;SDS011;54665;51.462;6.698;2022-09-13T04:34:40;9.80;;;4.47;;
67861;SDS011;54665;51.462;6.698;2022-09-13T04:37:06;8.07;;;3.63;;
67861;SDS011;54665;51.462;6.698;2022-09-13T04:39:31;7.37;;;3.80;;
67861;SDS011;54665;51.462;6.698;2022-09-13T04:41:56;7.00;;;3.90;;
67861;SDS011;54665;51.462;6.698;2022-09-13T04:44:22;7.87;;;3.90;;
67861;SDS011;54665;51.462;6.698;2022-09-13T04:46:48;8.40;;;3.70;;
67861;SDS011;54665;51.462;6.698;2022-09-13T04:49:15;8.27;;;4.10;;
67861;SDS011;54665;51.462;6.698;2022-09-13T04:51:41;9.35;;;4.45;;
67861;SDS011;54665;51.462;6.698;2022-09-13T04:54:07;8.60;;;4.53;;
67861;SDS011;54665;51.462;6.698;2022-09-13T04:56:34;6.78;;;4.25;;
67861;SDS011;54665;51.462;6.698;2022-09-13T04:58:59;8.57;;;3.70;;
67861;SDS011;54665;51.462;6.698;2022-09-13T05:01:25;6.80;;;3.70;;
67861;SDS011;54665;51.462;6.698;2022-09-13T05:03:50;8.07;;;3.97;;
67861;SDS011;54665;51.462;6.698;2022-09-13T05:06:17;7.25;;;3.70;;
67861;SDS011;54665;51.462;6.698;2022-09-13T05:08:43;7.90;;;4.20;;
67861;SDS011;54665;51.462;6.698;2022-09-13T05:11:13;6.25;;;3.97;;
67861;SDS011;54665;51.462;6.698;2022-09-13T05:13:38;7.77;;;3.97;;
67861;SDS011;54665;51.462;6.698;2022-09-13T05:16:04;7.85;;;3.90;;
67861;SDS011;54665;51.462;6.698;2022-09-13T05:18:32;8.40;;;4.20;;
67861;SDS011;54665;51.462;6.698;2022-09-13T05:20:59;7.83;;;3.80;;
67861;SDS011;54665;51.462;6.698;2022-09-13T05:23:27;7.80;;;4.25;;
67861;SDS011;54665;51.462;6.698;2022-09-13T05:25:57;8.15;;;4.20;;
67861;SDS011;54665;51.462;6.698;2022-09-13T05:28:24;9.43;;;4.07;;
67861;SDS011;54665;51.462;6.698;2022-09-13T05:30:56;7.10;;;4.30;;
67861;SDS011;54665;51.462;6.698;2022-09-13T05:33:27;9.33;;;4.10;;
67861;SDS011;54665;51.462;6.698;2022-09-13T05:35:54;7.55;;;4.13;;
67861;SDS011;54665;51.462;6.698;2022-09-13T05:38:19;10.57;;;4.50;;
67861;SDS011;54665;51.462;6.698;2022-09-13T05:40:45;7.20;;;4.15;;
67861;SDS011;54665;51.462;6.698;2022-09-13T05:43:11;8.90;;;4.50;;
67861;SDS011;54665;51.462;6.698;2022-09-13T05:45:36;6.90;;;4.20;;
67861;SDS011;54665;51.462;6.698;2022-09-13T05:48:02;8.40;;;4.20;;
67861;SDS011;54665;51.462;6.698;2022-09-13T05:50:29;8.80;;;4.28;;
67861;SDS011;54665;51.462;6.698;2022-09-13T05:52:54;8.67;;;4.20;;
67861;SDS011;54665;51.462;6.698;2022-09-13T05:55:20;9.15;;;4.15;;
67861;SDS011;54665;51.462;6.698;2022-09-13T05:57:47;8.68;;;3.97;;
67861;SDS011;54665;51.462;6.698;2022-09-13T06:00:13;8.52;;;3.90;;
67861;SDS011;54665;51.462;6.698;2022-09-13T06:02:40;7.57;;;4.00;;
67861;SDS011;54665;51.462;6.698;2022-09-13T06:05:06;7.25;;;4.00;;
67861;SDS011;54665;51.462;6.698;2022-09-13T06:07:35;7.18;;;3.85;;
67861;SDS011;54665;51.462;6.698;2022-09-13T06:10:03;9.25;;;3.33;;
67861;SDS011;54665;51.462;6.698;2022-09-13T06:12:29;5.80;;;3.53;;
67861;SDS011;54665;51.462;6.698;2022-09-13T06:14:54;7.47;;;3.67;;
67861;SDS011;54665;51.462;6.698;2022-09-13T06:17:20;7.10;;;3.40;;
67861;SDS011;54665;51.462;6.698;2022-09-13T06:19:46;6.97;;;3.78;;
67861;SDS011;54665;51.462;6.698;2022-09-13T06:22:11;5.63;;;3.50;;
67861;SDS011;54665;51.462;6.698;2022-09-13T06:24:36;7.27;;;3.60;;
67861;SDS011;54665;51.462;6.698;2022-09-13T06:27:02;7.03;;;3.33;;
67861;SDS011;54665;51.462;6.698;2022-09-13T06:29:28;6.05;;;3.40;;
67861;SDS011;54665;51.462;6.698;2022-09-13T06:31:53;7.47;;;3.90;;
67861;SDS011;54665;51.462;6.698;2022-09-13T06:34:19;6.77;;;3.63;;
67861;SDS011;54665;51.462;6.698;2022-09-13T06:36:44;6.88;;;3.55;;
67861;SDS011;54665;51.462;6.698;2022-09-13T06:39:09;8.93;;;3.80;;
67861;SDS011;54665;51.462;6.698;2022-09-13T06:41:37;7.37;;;3.50;;
67861;SDS011;54665;51.462;6.698;2022-09-13T06:44:03;7.45;;;3.70;;
67861;SDS011;54665;51.462;6.698;2022-09-13T06:46:29;8.32;;;3.58;;
67861;SDS011;54665;51.462;6.698;2022-09-13T06:49:00;8.33;;;3.17;;
67861;SDS011;54665;51.462;6.698;2022-09-13T06:51:28;6.30;;;3.60;;
67861;SDS011;54665;51.462;6.698;2022-09-13T06:53:56;6.70;;;3.15;;
67861;SDS011;54665;51.462;6.698;2022-09-13T06:56:29;5.88;;;3.47;;
67861;SDS011;54665;51.462;6.698;2022-09-13T06:58:58;7.57;;;3.65;;
67861;SDS011;54665;51.462;6.698;2022-09-13T07:01:29;8.00;;;3.50;;
67861;SDS011;54665;51.462;6.698;2022-09-13T07:04:01;7.85;;;3.30;;
67861;SDS011;54665;51.462;6.698;2022-09-13T07:06:31;11.00;;;3.60;;
67861;SDS011;54665;51.462;6.698;2022-09-13T07:08:59;5.88;;;3.30;;
67861;SDS011;54665;51.462;6.698;2022-09-13T07:11:27;8.25;;;3.45;;
67861;SDS011;54665;51.462;6.698;2022-09-13T07:13:54;6.03;;;3.70;;
67861;SDS011;54665;51.462;6.698;2022-09-13T07:16:22;8.50;;;3.40;;
67861;SDS011;54665;51.462;6.698;2022-09-13T07:18:50;6.38;;;3.65;;
67861;SDS011;54665;51.462;6.698;2022-09-13T07:21:19;7.80;;;3.42;;
67861;SDS011;54665;51.462;6.698;2022-09-13T07:23:45;7.43;;;3.53;;
67861;SDS011;54665;51.462;6.698;2022-09-13T07:26:10;5.50;;;3.70;;
67861;SDS011;54665;51.462;6.698;2022-09-13T07:28:37;5.63;;;3.60;;
67861;SDS011;54665;51.462;6.698;2022-09-13T07:31:08;7.72;;;3.72;;
67861;SDS011;54665;51.462;6.698;2022-09-13T07:33:35;6.70;;;3.67;;
67861;SDS011;54665;51.462;6.698;2022-09-13T07:36:02;6.85;;;3.47;;
67861;SDS011;54665;51.462;6.698;2022-09-13T07:38:31;8.00;;;3.53;;
67861;SDS011;54665;51.462;6.698;2022-09-13T07:41:00;7.23;;;3.67;;
67861;SDS011;54665;51.462;6.698;2022-09-13T07:43:26;6.07;;;3.50;;
67861;SDS011;54665;51.462;6.698;2022-09-13T07:45:56;6.65;;;3.53;;
67861;SDS011;54665;51.462;6.698;2022-09-13T07:48:25;7.68;;;3.88;;
67861;SDS011;54665;51.462;6.698;2022-09-13T07:50:56;5.47;;;3.63;;
67861;SDS011;54665;51.462;6.698;2022-09-13T07:53:26;5.20;;;3.50;;
67861;SDS011;54665;51.462;6.698;2022-09-13T07:55:51;6.68;;;3.92;;
67861;SDS011;54665;51.462;6.698;2022-09-13T07:58:17;8.10;;;3.90;;
67861;SDS011;54665;51.462;6.698;2022-09-13T08:00:43;7.20;;;3.90;;
67861;SDS011;54665;51.462;6.698;2022-09-13T08:03:10;7.57;;;3.83;;
67861;SDS011;54665;51.462;6.698;2022-09-13T08:05:39;7.53;;;4.20;;
67861;SDS011;54665;51.462;6.698;2022-09-13T08:08:05;5.68;;;4.03;;
67861;SDS011;54665;51.462;6.698;2022-09-13T08:10:31;6.40;;;4.10;;
67861;SDS011;54665;51.462;6.698;2022-09-13T08:12:58;6.13;;;4.18;;
67861;SDS011;54665;51.462;6.698;2022-09-13T08:15:24;7.57;;;4.20;;
67861;SDS011;54665;51.462;6.698;2022-09-13T08:17:49;6.47;;;4.20;;
67861;SDS011;54665;51.462;6.698;2022-09-13T08:20:15;5.40;;;4.20;;
67861;SDS011;54665;51.462;6.698;2022-09-13T08:22:40;8.00;;;4.93;;
67861;SDS011;54665;51.462;6.698;2022-09-13T08:25:06;7.88;;;4.43;;
67861;SDS011;54665;51.462;6.698;2022-09-13T08:27:31;9.77;;;4.67;;
67861;SDS011;54665;51.462;6.698;2022-09-13T08:29:56;7.07;;;4.80;;
67861;SDS011;54665;51.462;6.698;2022-09-13T08:32:22;7.50;;;4.90;;
67861;SDS011;54665;51.462;6.698;2022-09-13T08:34:47;12.55;;;4.60;;
67861;SDS011;54665;51.462;6.698;2022-09-13T08:37:13;11.27;;;4.63;;
67861;SDS011;54665;51.462;6.698;2022-09-13T08:39:38;7.60;;;4.70;;
67861;SDS011;54665;51.462;6.698;2022-09-13T08:44:48;7.60;;;4.85;;
67861;SDS011;54665;51.462;6.698;2022-09-13T08:47:34;9.48;;;5.65;;
67861;SDS011;54665;51.462;6.698;2022-09-13T08:50:19;8.57;;;5.43;;
67861;SDS011;54665;51.462;6.698;2022-09-13T09:03:59;8.57;;;5.40;;
67861;SDS011;54665;51.462;6.698;2022-09-13T09:06:33;7.18;;;5.15;;
67861;SDS011;54665;51.462;6.698;2022-09-13T09:09:04;9.27;;;5.80;;
67861;SDS011;54665;51.462;6.698;2022-09-13T09:11:58;8.73;;;5.68;;
67861;SDS011;54665;51.462;6.698;2022-09-13T09:14:34;9.77;;;5.90;;
67861;SDS011;54665;51.462;6.698;2022-09-13T09:17:06;17.17;;;6.07;;
67861;SDS011;54665;51.462;6.698;2022-09-13T09:19:41;10.30;;;6.00;;
67861;SDS011;54665;51.462;6.698;2022-09-13T09:22:12;9.45;;;6.03;;
67861;SDS011;54665;51.462;6.698;2022-09-13T09:24:55;10.25;;;6.05;;
67861;SDS011;54665;51.462;6.698;2022-09-13T09:27:21;12.13;;;6.80;;
67861;SDS011;54665;51.462;6.698;2022-09-13T09:29:48;9.33;;;6.50;;
67861;SDS011;54665;51.462;6.698;2022-09-13T09:35:08;8.32;;;5.70;;
67861;SDS011;54665;51.462;6.698;2022-09-13T09:37:41;10.52;;;6.75;;
67861;SDS011;54665;51.462;6.698;2022-09-13T09:40:14;12.10;;;6.50;;
67861;SDS011;54665;51.462;6.698;2022-09-13T09:42:43;10.52;;;6.22;;
67861;SDS011;54665;51.462;6.698;2022-09-13T09:45:18;7.93;;;4.80;;
67861;SDS011;54665;51.462;6.698;2022-09-13T09:47:51;10.85;;;5.60;;
67861;SDS011;54665;51.462;6.698;2022-09-13T09:50:26;8.68;;;5.40;;
67861;SDS011;54665;51.462;6.698;2022-09-13T09:58:17;9.13;;;5.70;;
67861;SDS011;54665;51.462;6.698;2022-09-13T10:01:01;9.70;;;6.07;;
67861;SDS011;54665;51.462;6.698;2022-09-13T10:03:31;11.23;;;5.90;;
67861;SDS011;54665;51.462;6.698;2022-09-13T10:08:35;8.13;;;5.35;;
67861;SDS011;54665;51.462;6.698;2022-09-13T10:11:03;9.70;;;5.60;;
67861;SDS011;54665;51.462;6.698;2022-09-13T10:13:30;9.23;;;5.93;;
67861;SDS011;54665;51.462;6.698;2022-09-13T10:15:57;8.55;;;5.78;;
67861;SDS011;54665;51.462;6.698;2022-09-13T10:18:31;10.25;;;5.70;;
67861;SDS011;54665;51.462;6.698;2022-09-13T10:23:33;9.87;;;6.90;;
67861;SDS011;54665;51.462;6.698;2022-09-13T10:26:18;11.32;;;7.07;;
67861;SDS011;54665;51.462;6.698;2022-09-13T10:28:58;11.10;;;6.45;;
67861;SDS011;54665;51.462;6.698;2022-09-13T10:31:30;12.35;;;6.90;;
67861;SDS011;54665;51.462;6.698;2022-09-13T10:36:30;14.87;;;7.50;;
67861;SDS011;54665;51.462;6.698;2022-09-13T10:38:58;13.13;;;7.60;;
67861;SDS011;54665;51.462;6.698;2022-09-13T10:41:27;11.50;;;6.95;;
67861;SDS011;54665;51.462;6.698;2022-09-13T10:43:56;11.38;;;7.53;;
67861;SDS011;54665;51.462;6.698;2022-09-13T10:46:22;15.27;;;8.23;;
67861;SDS011;54665;51.462;6.698;2022-09-13T10:48:48;14.40;;;8.60;;
67861;SDS011;54665;51.462;6.698;2022-09-13T10:51:27;14.95;;;8.02;;
67861;SDS011;54665;51.462;6.698;2022-09-13T10:54:07;13.68;;;8.07;;
67861;SDS011;54665;51.462;6.698;2022-09-13T10:56:35;10.60;;;7.18;;
67861;SDS011;54665;51.462;6.698;2022-09-13T11:05:05;11.73;;;7.57;;
67861;SDS011;54665;51.462;6.698;2022-09-13T11:10:28;13.70;;;7.05;;
67861;SDS011;54665;51.462;6.698;2022-09-13T11:13:05;14.98;;;8.50;;
67861;SDS011;54665;51.462;6.698;2022-09-13T11:15:50;13.03;;;8.50;;
67861;SDS011;54665;51.462;6.698;2022-09-13T11:18:48;11.50;;;7.53;;
67861;SDS011;54665;51.462;6.698;2022-09-13T11:21:35;12.77;;;7.22;;
67861;SDS011;54665;51.462;6.698;2022-09-13T11:24:19;13.20;;;5.70;;
67861;SDS011;54665;51.462;6.698;2022-09-13T11:29:36;13.43;;;8.10;;
67861;SDS011;54665;51.462;6.698;2022-09-13T11:38:04;9.10;;;5.50;;
67861;SDS011;54665;51.462;6.698;2022-09-13T11:41:05;10.50;;;6.95;;
67861;SDS011;54665;51.462;6.698;2022-09-13T11:46:43;10.55;;;6.20;;
67861;SDS011;54665;51.462;6.698;2022-09-13T11:55:16;9.88;;;6.60;;
67861;SDS011;54665;51.462;6.698;2022-09-13T11:57:48;10.53;;;6.13;;
67861;SDS011;54665;51.462;6.698;2022-09-13T12:02:46;10.77;;;7.63;;
67861;SDS011;54665;51.462;6.698;2022-09-13T12:05:20;11.65;;;7.82;;
67861;SDS011;54665;51.462;6.698;2022-09-13T12:13:14;8.80;;;5.80;;
67861;SDS011;54665;51.462;6.698;2022-09-13T12:15:51;10.38;;;6.78;;
67861;SDS011;54665;51.462;6.698;2022-09-13T12:18:23;11.95;;;6.00;;
67861;SDS011;54665;51.462;6.698;2022-09-13T12:20:53;8.90;;;5.10;;
67861;SDS011;54665;51.462;6.698;2022-09-13T12:23:32;10.17;;;4.53;;
67861;SDS011;54665;51.462;6.698;2022-09-13T12:26:08;7.97;;;4.50;;
67861;SDS011;54665;51.462;6.698;2022-09-13T12:28:41;6.88;;;4.88;;
67861;SDS011;54665;51.462;6.698;2022-09-13T12:31:17;8.32;;;5.60;;
67861;SDS011;54665;51.462;6.698;2022-09-13T12:33:46;11.43;;;6.55;;
67861;SDS011;54665;51.462;6.698;2022-09-13T12:36:22;12.37;;;8.10;;
67861;SDS011;54665;51.462;6.698;2022-09-13T12:39:01;14.00;;;9.18;;
67861;SDS011;54665;51.462;6.698;2022-09-13T12:44:40;10.70;;;7.75;;
67861;SDS011;54665;51.462;6.698;2022-09-13T12:47:28;11.38;;;7.25;;
67861;SDS011;54665;51.462;6.698;2022-09-13T12:56:14;11.63;;;8.45;;
67861;SDS011;54665;51.462;6.698;2022-09-13T13:01:59;13.20;;;9.02;;
67861;SDS011;54665;51.462;6.698;2022-09-13T13:04:29;10.33;;;7.77;;
67861;SDS011;54665;51.462;6.698;2022-09-13T13:09:38;15.82;;;9.75;;
67861;SDS011;54665;51.462;6.698;2022-09-13T13:12:10;12.02;;;8.25;;
67861;SDS011;54665;51.462;6.698;2022-09-13T13:14:50;14.45;;;9.73;;
67861;SDS011;54665;51.462;6.698;2022-09-13T13:23:03;15.40;;;9.30;;
67861;SDS011;54665;51.462;6.698;2022-09-13T13:25:53;14.10;;;8.80;;
67861;SDS011;54665;51.462;6.698;2022-09-13T13:33:50;15.40;;;9.55;;
67861;SDS011;54665;51.462;6.698;2022-09-13T13:39:12;15.27;;;8.77;;
67861;SDS011;54665;51.462;6.698;2022-09-13T13:41:58;13.65;;;8.73;;
67861;SDS011;54665;51.462;6.698;2022-09-13T13:46:53;12.35;;;7.70;;
67861;SDS011;54665;51.462;6.698;2022-09-13T13:57:04;8.95;;;5.60;;
67861;SDS011;54665;51.462;6.698;2022-09-13T13:59:46;9.45;;;7.18;;
67861;SDS011;54665;51.462;6.698;2022-09-13T14:02:14;10.65;;;6.07;;
67861;SDS011;54665;51.462;6.698;2022-09-13T14:21:27;10.40;;;7.30;;
67861;SDS011;54665;51.462;6.698;2022-09-13T14:26:48;9.75;;;7.07;;
67861;SDS011;54665;51.462;6.698;2022-09-13T14:29:20;8.80;;;6.85;;
67861;SDS011;54665;51.462;6.698;2022-09-13T14:31:51;11.27;;;6.57;;
67861;SDS011;54665;51.462;6.698;2022-09-13T14:34:28;10.77;;;6.97;;
67861;SDS011;54665;51.462;6.698;2022-09-13T14:36:58;9.57;;;6.47;;
67861;SDS011;54665;51.462;6.698;2022-09-13T14:39:25;12.90;;;8.93;;
67861;SDS011;54665;51.462;6.698;2022-09-13T14:44:46;12.00;;;8.90;;
67861;SDS011;54665;51.462;6.698;2022-09-13T14:49:51;10.68;;;7.93;;
67861;SDS011;54665;51.462;6.698;2022-09-13T14:52:30;14.43;;;8.32;;
67861;SDS011;54665;51.462;6.698;2022-09-13T14:55:00;11.95;;;7.60;;
67861;SDS011;54665;51.462;6.698;2022-09-13T14:57:30;12.40;;;8.40;;
67861;SDS011;54665;51.462;6.698;2022-09-13T15:00:05;11.80;;;7.57;;
67861;SDS011;54665;51.462;6.698;2022-09-13T15:02:40;12.70;;;7.82;;
67861;SDS011;54665;51.462;6.698;2022-09-13T15:05:16;12.23;;;8.50;;
67861;SDS011;54665;51.462;6.698;2022-09-13T15:07:44;13.90;;;8.20;;
67861;SDS011;54665;51.462;6.698;2022-09-13T15:12:49;15.57;;;8.80;;
67861;SDS011;54665;51.462;6.698;2022-09-13T15:17:51;13.40;;;9.00;;
67861;SDS011;54665;51.462;6.698;2022-09-13T15:20:46;13.40;;;8.95;;
67861;SDS011;54665;51.462;6.698;2022-09-13T15:23:33;12.83;;;8.67;;
67861;SDS011;54665;51.462;6.698;2022-09-13T15:26:03;12.07;;;8.13;;
67861;SDS011;54665;51.462;6.698;2022-09-13T15:28:50;12.95;;;8.05;;
67861;SDS011;54665;51.462;6.698;2022-09-13T15:31:24;13.57;;;8.43;;
67861;SDS011;54665;51.462;6.698;2022-09-13T15:36:37;11.90;;;7.87;;
67861;SDS011;54665;51.462;6.698;2022-09-13T15:41:36;14.68;;;9.10;;
67861;SDS011;54665;51.462;6.698;2022-09-13T15:44:07;13.18;;;9.45;;
67861;SDS011;54665;51.462;6.698;2022-09-13T15:46:33;13.73;;;8.98;;
67861;SDS011;54665;51.462;6.698;2022-09-13T15:49:11;14.73;;;9.97;;
67861;SDS011;54665;51.462;6.698;2022-09-13T15:51:41;14.85;;;9.35;;
67861;SDS011;54665;51.462;6.698;2022-09-13T15:54:14;14.00;;;9.25;;
67861;SDS011;54665;51.462;6.698;2022-09-13T15:56:41;15.00;;;9.10;;
67861;SDS011;54665;51.462;6.698;2022-09-13T15:59:12;14.00;;;9.10;;
67861;SDS011;54665;51.462;6.698;2022-09-13T16:01:39;13.83;;;9.30;;
67861;SDS011;54665;51.462;6.698;2022-09-13T16:04:05;13.85;;;8.55;;
67861;SDS011;54665;51.462;6.698;2022-09-13T16:06:31;14.43;;;9.63;;
67861;SDS011;54665;51.462;6.698;2022-09-13T16:08:57;15.05;;;9.65;;
67861;SDS011;54665;51.462;6.698;2022-09-13T16:11:24;15.10;;;9.17;;
67861;SDS011;54665;51.462;6.698;2022-09-13T16:13:50;13.20;;;8.30;;
67861;SDS011;54665;51.462;6.698;2022-09-13T16:16:15;13.30;;;9.07;;
67861;SDS011;54665;51.462;6.698;2022-09-13T16:18:41;14.20;;;9.00;;
67861;SDS011;54665;51.462;6.698;2022-09-13T16:21:06;13.65;;;8.60;;
67861;SDS011;54665;51.462;6.698;2022-09-13T16:23:31;13.30;;;8.37;;
67861;SDS011;54665;51.462;6.698;2022-09-13T16:25:57;14.90;;;9.30;;
67861;SDS011;54665;51.462;6.698;2022-09-13T16:28:24;12.75;;;9.05;;
67861;SDS011;54665;51.462;6.698;2022-09-13T16:30:50;12.95;;;9.30;;
67861;SDS011;54665;51.462;6.698;2022-09-13T16:33:16;12.90;;;8.63;;
67861;SDS011;54665;51.462;6.698;2022-09-13T16:35:41;13.20;;;8.85;;
67861;SDS011;54665;51.462;6.698;2022-09-13T16:38:08;13.27;;;8.60;;
67861;SDS011;54665;51.462;6.698;2022-09-13T16:40:34;11.85;;;8.45;;
67861;SDS011;54665;51.462;6.698;2022-09-13T16:43:02;12.73;;;8.40;;
67861;SDS011;54665;51.462;6.698;2022-09-13T16:45:27;12.20;;;8.53;;
67861;SDS011;54665;51.462;6.698;2022-09-13T16:47:53;11.53;;;7.90;;
67861;SDS011;54665;51.462;6.698;2022-09-13T16:50:18;11.23;;;7.47;;
67861;SDS011;54665;51.462;6.698;2022-09-13T16:52:43;14.07;;;8.17;;
67861;SDS011;54665;51.462;6.698;2022-09-13T16:55:09;12.00;;;7.60;;
67861;SDS011;54665;51.462;6.698;2022-09-13T16:57:34;9.90;;;6.70;;
67861;SDS011;54665;51.462;6.698;2022-09-13T17:00:01;11.10;;;6.70;;
67861;SDS011;54665;51.462;6.698;2022-09-13T17:02:31;10.60;;;6.97;;
67861;SDS011;54665;51.462;6.698;2022-09-13T17:04:56;10.97;;;7.30;;
67861;SDS011;54665;51.462;6.698;2022-09-13T17:07:22;11.17;;;7.33;;
67861;SDS011;54665;51.462;6.698;2022-09-13T17:09:52;9.45;;;7.18;;
67861;SDS011;54665;51.462;6.698;2022-09-13T17:12:17;10.77;;;6.90;;
67861;SDS011;54665;51.462;6.698;2022-09-13T17:14:43;9.65;;;7.10;;
67861;SDS011;54665;51.462;6.698;2022-09-13T17:17:14;10.35;;;6.70;;
67861;SDS011;54665;51.462;6.698;2022-09-13T17:19:41;13.53;;;6.70;;
67861;SDS011;54665;51.462;6.698;2022-09-13T17:22:08;9.65;;;6.55;;
67861;SDS011;54665;51.462;6.698;2022-09-13T17:24:35;9.05;;;6.40;;
67861;SDS011;54665;51.462;6.698;2022-09-13T17:27:01;9.70;;;6.13;;
67861;SDS011;54665;51.462;6.698;2022-09-13T17:29:28;11.90;;;6.50;;
67861;SDS011;54665;51.462;6.698;2022-09-13T17:31:56;11.53;;;6.47;;
67861;SDS011;54665;51.462;6.698;2022-09-13T17:34:22;10.15;;;6.10;;
67861;SDS011;54665;51.462;6.698;2022-09-13T17:36:47;9.13;;;6.03;;
67861;SDS011;54665;51.462;6.698;2022-09-13T17:39:12;10.10;;;6.30;;
67861;SDS011;54665;51.462;6.698;2022-09-13T17:41:38;9.50;;;6.13;;
67861;SDS011;54665;51.462;6.698;2022-09-13T17:44:03;11.43;;;6.43;;
67861;SDS011;54665;51.462;6.698;2022-09-13T17:46:29;8.23;;;5.60;;
67861;SDS011;54665;51.462;6.698;2022-09-13T17:48:55;8.18;;;5.70;;
67861;SDS011;54665;51.462;6.698;2022-09-13T17:51:29;7.95;;;5.60;;
67861;SDS011;54665;51.462;6.698;2022-09-13T17:53:56;11.43;;;5.57;;
67861;SDS011;54665;51.462;6.698;2022-09-13T17:56:31;8.05;;;5.10;;
67861;SDS011;54665;51.462;6.698;2022-09-13T17:59:03;8.40;;;4.93;;
67861;SDS011;54665;51.462;6.698;2022-09-13T18:01:30;7.60;;;4.65;;
67861;SDS011;54665;51.462;6.698;2022-09-13T18:03:56;6.97;;;5.00;;
67861;SDS011;54665;51.462;6.698;2022-09-13T18:06:21;6.40;;;4.40;;
67861;SDS011;54665;51.462;6.698;2022-09-13T18:08:47;7.30;;;4.50;;
67861;SDS011;54665;51.462;6.698;2022-09-13T18:11:13;7.55;;;4.70;;
67861;SDS011;54665;51.462;6.698;2022-09-13T18:13:42;6.53;;;4.40;;
67861;SDS011;54665;51.462;6.698;2022-09-13T18:16:12;7.35;;;4.20;;